Time;durP1;ratioP1;P1;durP2;ratioP2;P2;SDS_P1;SDS_P2;PMS_P1;PMS_P2;Temp;Humidity;BMP_temperature;BMP_pressure;BME280_temperature;BME280_humidity;BME280_pressure;Samples;Min_cycle;Max_cycle;Signal;HPM_P1;HPM_P2
2023/11/27 00:01:08;;;;;;;1.30;0.50;;;;;;;2.13;93.31;95279.69;80367;1274;3028237;-59
2023/11/27 00:03:35;;;;;;;0.90;0.60;;;;;;;1.94;99.45;95293.17;81602;1273;3013293;-61
2023/11/27 00:06:02;;;;;;;0.40;0.40;;;;;;;1.81;100.00;95328.36;81559;1272;3011597;-62
2023/11/27 00:08:30;;;;;;;0.40;0.40;;;;;;;1.45;100.00;95314.81;80355;1273;3056512;-62
2023/11/27 00:10:57;;;;;;;1.90;0.50;;;;;;;1.31;100.00;95333.48;81577;1274;3019710;-63
2023/11/27 00:13:24;;;;;;;0.50;0.50;;;;;;;1.04;100.00;95322.16;81637;1273;3011837;-61
2023/11/27 00:15:52;;;;;;;0.80;0.40;;;;;;;0.96;100.00;95347.46;80280;1274;3028234;-62
2023/11/27 00:18:19;;;;;;;0.40;0.30;;;;;;;1.34;100.00;95340.34;81558;1272;3013454;-60
2023/11/27 00:20:46;;;;;;;0.40;0.40;;;;;;;1.39;97.91;95349.19;78904;1272;6642721;-63
2023/11/27 00:23:14;;;;;;;0.50;0.50;;;;;;;1.12;96.93;95350.33;80386;1270;3055286;-61
2023/11/27 00:25:41;;;;;;;0.30;0.30;;;;;;;0.92;96.69;95374.64;81487;1272;3018608;-62
2023/11/27 00:28:08;;;;;;;0.40;0.30;;;;;;;0.73;97.60;95377.29;81481;1270;3011564;-63
2023/11/27 00:30:37;;;;;;;0.80;0.20;;;;;;;1.25;97.55;95391.97;80215;1274;3052359;-62
2023/11/27 00:33:04;;;;;;;1.80;0.30;;;;;;;1.51;94.73;95398.52;81529;1273;3013806;-61
2023/11/27 00:35:32;;;;;;;1.70;0.90;;;;;;;1.36;93.89;95388.04;81568;1274;3011651;-61
2023/11/27 00:38:00;;;;;;;3.80;1.70;;;;;;;1.20;93.75;95411.06;80498;1275;3055443;-60
2023/11/27 00:40:26;;;;;;;4.50;1.80;;;;;;;0.83;94.68;95427.34;81581;1270;3012996;-61
2023/11/27 00:42:55;;;;;;;2.80;1.60;;;;;;;0.69;95.26;95433.48;81515;1272;3011689;-63
2023/11/27 00:45:23;;;;;;;7.10;2.60;;;;;;;0.92;95.24;95436.56;80324;1272;3053058;-60
2023/11/27 00:47:49;;;;;;;7.80;3.00;;;;;;;1.18;93.16;95447.04;81471;1274;3013079;-61
2023/11/27 00:50:17;;;;;;;7.30;3.50;;;;;;;1.39;91.67;95446.13;81458;1274;3011376;-63
2023/11/27 00:52:45;;;;;;;4.40;2.70;;;;;;;1.23;91.18;95477.83;80239;1275;3057606;-61
2023/11/27 00:55:12;;;;;;;8.90;4.60;;;;;;;0.95;91.49;95487.06;81550;1270;3013228;-62
2023/11/27 00:57:39;;;;;;;18.30;7.40;;;;;;;0.73;92.71;95500.68;81526;1274;3011577;-63
2023/11/27 01:00:10;;;;;;;11.90;6.50;;;;;;;0.63;93.04;95509.06;80267;1271;3026410;-61
2023/11/27 01:02:37;;;;;;;9.90;4.90;;;;;;;1.05;92.11;95510.08;81444;1271;3013307;-62
2023/11/27 01:05:07;;;;;;;6.80;3.60;;;;;;;1.15;89.98;95532.49;80375;1273;3024750;-64
2023/11/27 01:07:34;;;;;;;2.90;1.60;;;;;;;0.90;90.59;95546.60;81695;1275;3013398;-62
2023/11/27 01:10:01;;;;;;;2.70;1.70;;;;;;;0.97;90.25;95556.54;81547;1272;3013167;-61
2023/11/27 01:12:30;;;;;;;2.90;1.20;;;;;;;0.51;90.63;95553.98;80244;1275;3052961;-65
2023/11/27 01:14:57;;;;;;;1.60;1.10;;;;;;;0.19;92.39;95566.40;81974;1271;3013850;-64
2023/11/27 01:17:23;;;;;;;1.80;0.90;;;;;;;0.02;93.43;95595.45;81465;1272;3011624;-64
2023/11/27 01:19:52;;;;;;;0.90;0.50;;;;;;;0.32;93.80;95593.56;80293;1272;3068714;-62
2023/11/27 01:22:19;;;;;;;4.30;1.10;;;;;;;1.09;89.92;95612.25;81672;1271;3012359;-62
2023/11/27 01:24:46;;;;;;;1.00;0.80;;;;;;;1.00;88.41;95627.80;81496;1270;3011767;-62
2023/11/27 01:27:14;;;;;;;1.30;1.10;;;;;;;0.72;88.99;95644.96;80134;1270;3051777;-63
2023/11/27 01:29:41;;;;;;;1.60;1.20;;;;;;;0.53;88.96;95661.96;81500;1274;3018827;-63
2023/11/27 01:32:08;;;;;;;3.30;1.40;;;;;;;0.30;88.96;95671.17;81591;1275;3011363;-61
2023/11/27 01:34:37;;;;;;;3.50;1.40;;;;;;;0.33;89.11;95686.84;80333;1274;3027915;-60
2023/11/27 01:37:03;;;;;;;3.50;2.00;;;;;;;0.73;87.69;95712.56;81636;1275;3013018;-60
2023/11/27 01:39:30;;;;;;;4.40;2.30;;;;;;;1.11;85.36;95717.09;81643;1273;3012036;-60
2023/11/27 01:41:58;;;;;;;5.30;2.30;;;;;;;1.18;83.99;95717.52;80203;1272;3025979;-61
2023/11/27 01:44:25;;;;;;;3.80;1.70;;;;;;;0.85;84.43;95738.96;81629;1273;3013490;-61
2023/11/27 01:46:52;;;;;;;1.70;1.20;;;;;;;0.57;86.03;95722.46;81692;1276;3011846;-63
2023/11/27 01:49:20;;;;;;;1.80;0.90;;;;;;;0.50;86.10;95742.30;80370;1272;3027751;-63
2023/11/27 01:51:47;;;;;;;0.40;0.30;;;;;;;0.49;86.52;95758.38;81572;1275;3013359;-63
2023/11/27 01:54:14;;;;;;;0.60;0.50;;;;;;;0.84;86.33;95771.61;81301;1276;3011820;-61
2023/11/27 01:56:44;;;;;;;0.90;0.60;;;;;;;1.14;85.34;95778.19;80207;1275;3026048;-64
2023/11/27 01:59:11;;;;;;;0.50;0.30;;;;;;;1.06;85.78;95810.02;81575;1273;3012799;-62
2023/11/27 02:01:38;;;;;;;0.50;0.40;;;;;;;0.85;86.14;95828.91;81624;1275;3011904;-63
2023/11/27 02:04:07;;;;;;;1.10;0.70;;;;;;;0.65;88.01;95820.46;80307;1272;3068490;-64
2023/11/27 02:06:34;;;;;;;0.80;0.60;;;;;;;0.37;89.29;95836.63;81613;1270;3018788;-61
2023/11/27 02:09:01;;;;;;;1.20;0.70;;;;;;;0.38;90.15;95845.48;81462;1273;3011682;-62
2023/11/27 02:11:30;;;;;;;28.00;3.30;;;;;;;1.03;88.64;95861.92;80330;1274;3027504;-62
2023/11/27 02:13:56;;;;;;;2.00;0.90;;;;;;;0.84;89.40;95883.62;81507;1277;3012725;-63
2023/11/27 02:16:23;;;;;;;2.00;0.90;;;;;;;0.23;91.99;95891.40;81506;1275;3013158;-63
2023/11/27 02:18:51;;;;;;;1.50;1.00;;;;;;;0.10;94.53;95882.89;80258;1271;3070142;-62
2023/11/27 02:21:21;;;;;;;0.90;0.50;;;;;;;0.04;96.68;95915.52;81597;1271;3021079;-61
2023/11/27 02:23:51;;;;;;;1.40;0.60;;;;;;;0.47;96.58;95916.41;80356;1275;3049133;-62
2023/11/27 02:26:18;;;;;;;3.70;0.60;;;;;;;0.53;97.39;95931.50;81402;1275;3018688;-60
2023/11/27 02:28:44;;;;;;;1.40;1.00;;;;;;;0.12;97.09;95921.83;81582;1275;3011773;-60
2023/11/27 02:31:12;;;;;;;1.00;0.50;;;;;;;-0.07;97.66;95955.05;80166;1273;3028468;-63
2023/11/27 02:33:39;;;;;;;0.30;0.30;;;;;;;0.02;98.90;95953.02;81580;1272;3013574;-61
2023/11/27 02:36:07;;;;;;;0.40;0.40;;;;;;;0.24;98.94;95967.54;81540;1274;3011881;-62
2023/11/27 02:38:36;;;;;;;1.00;0.70;;;;;;;0.16;97.42;95968.98;80457;1274;3048676;-61
2023/11/27 02:41:03;;;;;;;1.90;0.80;;;;;;;-0.07;97.30;95991.85;81851;1274;3013577;-61
2023/11/27 02:43:30;;;;;;;0.70;0.60;;;;;;;-0.10;97.63;96008.80;81572;1272;3011678;-60
2023/11/27 02:45:58;;;;;;;0.60;0.50;;;;;;;-0.12;97.68;96002.92;80316;1274;3052577;-61
2023/11/27 02:48:25;;;;;;;1.10;0.80;;;;;;;0.46;97.48;96021.23;81474;1274;3013371;-62
2023/11/27 02:50:53;;;;;;;1.20;0.70;;;;;;;0.38;95.27;96036.71;81487;1274;3011611;-62
2023/11/27 02:53:22;;;;;;;1.20;0.80;;;;;;;0.18;95.01;96027.20;80382;1275;3049023;-61
2023/11/27 02:55:49;;;;;;;1.40;0.80;;;;;;;-0.08;95.20;96034.62;81658;1273;3014692;-61
2023/11/27 02:58:17;;;;;;;1.10;0.80;;;;;;;-0.10;95.86;96036.10;81605;1272;3011627;-62
2023/11/27 03:00:45;;;;;;;1.20;0.80;;;;;;;0.35;94.04;96053.19;80344;1275;3052226;-62
2023/11/27 03:03:13;;;;;;;2.00;1.10;;;;;;;0.46;91.19;96084.39;81562;1274;3013676;-62
2023/11/27 03:05:40;;;;;;;3.30;1.10;;;;;;;0.26;90.61;96080.89;81465;1272;3011636;-61
2023/11/27 03:08:08;;;;;;;1.70;1.10;;;;;;;-0.02;90.29;96085.24;80339;1273;3049396;-61
2023/11/27 03:10:36;;;;;;;1.70;1.20;;;;;;;-0.23;91.09;96084.66;81734;1272;3014258;-63
2023/11/27 03:13:03;;;;;;;1.30;0.90;;;;;;;0.03;91.24;96120.17;81696;1272;3011663;-61
2023/11/27 03:15:31;;;;;;;3.20;1.70;;;;;;;0.12;89.88;96097.73;80392;1274;3052468;-64
2023/11/27 03:17:58;;;;;;;1.40;1.20;;;;;;;0.29;89.21;96119.69;81738;1272;3018384;-61
2023/11/27 03:20:25;;;;;;;3.80;1.80;;;;;;;-0.16;88.40;96128.43;81499;1270;3011539;-60
2023/11/27 03:22:53;;;;;;;5.20;1.60;;;;;;;-0.57;89.36;96141.57;80312;1275;3025624;-62
2023/11/27 03:25:20;;;;;;;3.10;1.00;;;;;;;-0.66;89.01;96131.88;81608;1273;3012833;-61
2023/11/27 03:27:46;;;;;;;1.50;1.10;;;;;;;-0.83;89.71;96151.73;81518;1275;3012835;-61
2023/11/27 03:30:15;;;;;;;2.40;1.20;;;;;;;-0.27;88.52;96155.66;80285;1273;3025991;-60
2023/11/27 03:32:42;;;;;;;1.30;1.10;;;;;;;-0.14;85.67;96174.22;81535;1272;3013584;-65
2023/11/27 03:35:09;;;;;;;3.00;1.50;;;;;;;-0.39;85.26;96202.23;81503;1272;3013123;-64
2023/11/27 03:37:37;;;;;;;3.30;1.40;;;;;;;-0.66;85.06;96237.95;80285;1275;3048530;-59
2023/11/27 03:40:05;;;;;;;2.30;1.40;;;;;;;-0.93;84.80;96218.94;81524;1271;3021005;-62
2023/11/27 03:42:32;;;;;;;1.40;1.00;;;;;;;-1.14;85.85;96206.89;81619;1272;3011725;-62
2023/11/27 03:45:01;;;;;;;2.00;1.30;;;;;;;-0.83;85.95;96199.85;80283;1273;3051312;-62
2023/11/27 03:47:28;;;;;;;1.90;1.30;;;;;;;-0.63;84.77;96207.83;81481;1272;3015518;-60
2023/11/27 03:49:55;;;;;;;3.50;1.60;;;;;;;-0.42;84.06;96228.40;81425;1271;3011501;-61
2023/11/27 03:52:23;;;;;;;1.60;1.20;;;;;;;-0.84;84.08;96265.79;80252;1269;3048859;-61
2023/11/27 03:54:51;;;;;;;2.60;1.40;;;;;;;-0.94;84.84;96223.80;81745;1272;3013223;-61
2023/11/27 03:57:18;;;;;;;2.40;1.60;;;;;;;-1.29;85.79;96256.48;81721;1275;3011690;-59
2023/11/27 03:59:47;;;;;;;2.70;1.40;;;;;;;-1.28;85.57;96271.70;80409;1274;3051793;-60
2023/11/27 04:02:14;;;;;;;3.20;1.80;;;;;;;-1.00;85.10;96279.86;81775;1270;3013659;-62
2023/11/27 04:04:41;;;;;;;3.20;2.20;;;;;;;-0.86;84.42;96299.40;81682;1271;3013152;-59
2023/11/27 04:07:09;;;;;;;2.00;1.50;;;;;;;-0.80;84.77;96335.32;80417;1272;3049290;-59
2023/11/27 04:09:37;;;;;;;2.00;1.40;;;;;;;-1.22;85.96;96332.98;81880;1273;3012848;-59
2023/11/27 04:12:05;;;;;;;2.70;1.40;;;;;;;-1.27;86.85;96344.64;81727;1270;3013346;-61
2023/11/27 04:14:33;;;;;;;2.50;1.40;;;;;;;-1.54;87.87;96367.77;80286;1275;3050742;-60
2023/11/27 04:17:01;;;;;;;1.00;0.90;;;;;;;-1.13;87.74;96347.67;81563;1275;3013404;-58
2023/11/27 04:19:28;;;;;;;1.30;1.00;;;;;;;-0.84;86.78;96361.64;81686;1274;3012848;-61
2023/11/27 04:21:57;;;;;;;4.20;1.30;;;;;;;-0.65;84.64;96413.77;80507;1272;3049431;-60
2023/11/27 04:24:23;;;;;;;2.20;1.30;;;;;;;-1.04;84.48;96395.59;81622;1272;3018729;-61
2023/11/27 04:26:50;;;;;;;4.10;1.50;;;;;;;-1.27;85.53;96411.92;81682;1275;3011594;-64
2023/11/27 04:29:18;;;;;;;4.80;1.50;;;;;;;-1.39;85.59;96437.09;80295;1275;3028174;-59
2023/11/27 04:31:45;;;;;;;2.90;1.30;;;;;;;-1.51;86.16;96416.81;81545;1275;3012999;-61
2023/11/27 04:34:12;;;;;;;2.50;1.40;;;;;;;-1.01;85.69;96451.40;81571;1273;3011460;-64
2023/11/27 04:36:40;;;;;;;3.30;1.10;;;;;;;-0.80;83.57;96462.77;80523;1272;3026247;-59
2023/11/27 04:39:10;;;;;;;2.00;1.20;;;;;;;-1.02;83.84;96485.11;81621;1274;3013634;-63
2023/11/27 04:41:42;;;;;;;2.50;1.60;;;;;;;-1.29;84.87;96488.67;81032;1272;3011515;-62
2023/11/27 04:44:09;;;;;;;2.20;1.40;;;;;;;-1.55;84.98;96510.27;81575;1274;3012097;-63
2023/11/27 04:46:37;;;;;;;3.00;1.60;;;;;;;-1.86;85.62;96495.27;80652;1275;3026836;-61
2023/11/27 04:49:04;;;;;;;4.40;1.80;;;;;;;-1.79;86.20;96507.72;81576;1274;3013362;-63
2023/11/27 04:51:31;;;;;;;4.50;2.40;;;;;;;-1.34;84.75;96498.23;81782;1275;3011600;-62
2023/11/27 04:54:02;;;;;;;2.70;1.50;;;;;;;-1.18;83.51;96513.91;80454;1274;3025729;-61
2023/11/27 04:56:29;;;;;;;10.50;2.10;;;;;;;-1.40;82.64;96519.69;81640;1270;3012760;-63
2023/11/27 04:58:58;;;;;;;2.60;1.70;;;;;;;-1.46;82.98;96541.54;81002;1275;3011865;-61
2023/11/27 05:01:25;;;;;;;2.90;1.70;;;;;;;-1.81;83.26;96552.64;81439;1275;3012890;-69
2023/11/27 05:03:52;;;;;;;5.20;2.40;;;;;;;-1.80;83.72;96521.34;81425;1272;3011572;-61
2023/11/27 05:06:20;;;;;;;2.10;1.60;;;;;;;-1.93;84.05;96538.59;80314;1271;3028537;-63
2023/11/27 05:08:47;;;;;;;2.90;1.80;;;;;;;-1.93;84.16;96571.86;81911;1272;3013348;-61
2023/11/27 05:11:21;;;;;;;5.30;2.10;;;;;;;-1.10;82.03;96578.02;81557;1275;3011925;-64
2023/11/27 05:13:49;;;;;;;4.70;2.10;;;;;;;-1.20;81.08;96606.13;80543;1272;3049187;-62
2023/11/27 05:16:17;;;;;;;9.70;1.90;;;;;;;-1.62;82.04;96603.38;81664;1273;3013709;-62
2023/11/27 05:18:44;;;;;;;6.30;2.10;;;;;;;-1.74;82.71;96615.88;81670;1273;3011718;-64
2023/11/27 05:21:13;;;;;;;4.00;1.80;;;;;;;-1.78;81.89;96608.60;80362;1275;3053235;-62
2023/11/27 05:23:43;;;;;;;4.10;2.50;;;;;;;-2.00;82.59;96621.99;81748;1272;3015192;-63
2023/11/27 05:26:11;;;;;;;6.50;1.90;;;;;;;-2.00;82.90;96652.70;80315;1272;3052374;-65
2023/11/27 05:28:38;;;;;;;4.30;2.10;;;;;;;-1.62;82.10;96693.64;81861;1274;3018538;-60
2023/11/27 05:31:06;;;;;;;4.10;1.80;;;;;;;-1.31;79.93;96658.46;81588;1273;3011443;-68
2023/11/27 05:33:34;;;;;;;4.40;2.40;;;;;;;-1.43;80.15;96673.75;80428;1273;3068045;-67
2023/11/27 05:36:04;;;;;;;6.00;3.10;;;;;;;-1.52;80.59;96667.55;81594;1274;3013740;-66
2023/11/27 05:38:33;;;;;;;4.90;2.10;;;;;;;-1.81;80.68;96675.50;80693;1271;3047646;-71
2023/11/27 05:41:01;;;;;;;3.40;2.20;;;;;;;-2.07;81.46;96697.52;81664;1273;3013218;-63
2023/11/27 05:43:28;;;;;;;4.20;2.20;;;;;;;-2.07;81.90;96706.26;81547;1275;3013371;-61
2023/11/27 05:45:56;;;;;;;10.10;2.60;;;;;;;-2.26;82.88;96709.15;80484;1275;3052209;-63
2023/11/27 05:48:23;;;;;;;5.20;2.10;;;;;;;-2.10;83.70;96743.13;81845;1270;3013553;-62
2023/11/27 05:50:50;;;;;;;8.10;1.90;;;;;;;-1.53;81.35;96761.14;81738;1271;3011881;-64
2023/11/27 05:53:18;;;;;;;6.90;2.70;;;;;;;-1.51;80.05;96734.79;80283;1275;3028058;-61
2023/11/27 05:55:45;;;;;;;6.60;2.00;;;;;;;-1.77;81.36;96743.75;81650;1275;3013483;-65
2023/11/27 05:58:12;;;;;;;6.50;2.70;;;;;;;-1.86;81.44;96742.02;81559;1272;3011537;-62
2023/11/27 06:00:41;;;;;;;4.50;2.00;;;;;;;-1.86;81.01;96774.94;80357;1275;3051301;-64
2023/11/27 06:03:07;;;;;;;5.10;2.70;;;;;;;-2.13;81.41;96785.62;81833;1270;3013805;-63
2023/11/27 06:05:35;;;;;;;3.80;2.50;;;;;;;-2.24;82.02;96795.27;81651;1272;3011611;-61
2023/11/27 06:08:03;;;;;;;3.50;1.90;;;;;;;-2.40;82.73;96822.00;80455;1270;3049426;-65
2023/11/27 06:10:31;;;;;;;5.10;2.40;;;;;;;-1.93;82.46;96808.09;81671;1273;3012965;-64
2023/11/27 06:12:58;;;;;;;3.40;1.60;;;;;;;-1.76;81.27;96813.39;81557;1275;3011988;-65
2023/11/27 06:15:26;;;;;;;5.40;2.00;;;;;;;-1.42;80.26;96817.02;80477;1275;3051183;-63
2023/11/27 06:17:53;;;;;;;6.90;2.90;;;;;;;-1.57;79.62;96847.20;81608;1275;3012783;-64
2023/11/27 06:20:20;;;;;;;7.50;3.30;;;;;;;-1.89;80.39;96829.50;81681;1270;3011424;-60
2023/11/27 06:22:48;;;;;;;6.80;3.10;;;;;;;-1.86;80.50;96849.77;80349;1275;3028633;-65
2023/11/27 06:25:14;;;;;;;6.40;2.90;;;;;;;-2.06;80.85;96841.68;81921;1274;3012792;-63
2023/11/27 06:27:41;;;;;;;3.90;2.50;;;;;;;-2.18;81.75;96837.00;81729;1275;3011711;-64
2023/11/27 06:30:11;;;;;;;6.50;2.50;;;;;;;-2.24;81.69;96867.98;80350;1273;3027079;-62
2023/11/27 06:32:37;;;;;;;5.40;2.10;;;;;;;-1.72;81.64;96890.55;81666;1274;3015022;-62
2023/11/27 06:35:05;;;;;;;5.70;3.40;;;;;;;-1.65;79.99;96878.70;81744;1272;3011629;-65
2023/11/27 06:37:33;;;;;;;4.80;2.40;;;;;;;-1.80;80.36;96904.69;80293;1274;3049399;-65
2023/11/27 06:40:00;;;;;;;4.90;2.60;;;;;;;-1.91;81.16;96930.84;81814;1273;3013078;-65
2023/11/27 06:42:27;;;;;;;7.30;3.30;;;;;;;-1.86;81.50;96909.48;81647;1274;3011562;-62
2023/11/27 06:44:55;;;;;;;4.80;2.80;;;;;;;-2.10;80.93;96939.48;80482;1275;3026437;-61
2023/11/27 06:47:22;;;;;;;7.10;3.30;;;;;;;-2.23;81.38;96951.47;81474;1274;3011643;-62
2023/11/27 06:49:49;;;;;;;4.70;2.60;;;;;;;-2.23;81.86;96930.35;81535;1270;3011541;-61
2023/11/27 06:52:17;;;;;;;5.20;2.70;;;;;;;-2.45;83.13;96935.38;80434;1272;3026571;-60
2023/11/27 06:54:44;;;;;;;5.30;2.70;;;;;;;-2.48;83.80;96952.53;81439;1270;3013138;-63
2023/11/27 06:57:12;;;;;;;11.40;3.60;;;;;;;-2.06;83.39;96969.16;81550;1273;3011695;-63
2023/11/27 06:59:41;;;;;;;6.30;3.10;;;;;;;-1.58;83.49;96966.05;80428;1282;3050964;-61
2023/11/27 07:02:07;;;;;;;8.40;3.10;;;;;;;-1.62;81.67;96964.21;81451;1275;3018774;-64
2023/11/27 07:04:34;;;;;;;4.70;2.50;;;;;;;-2.17;83.50;96998.84;81434;1273;3011608;-64
2023/11/27 07:07:03;;;;;;;3.10;1.70;;;;;;;-2.20;83.51;97004.30;80356;1275;3027639;-63
2023/11/27 07:09:29;;;;;;;5.60;2.50;;;;;;;-2.48;85.54;97020.91;81819;1275;3015801;-62
2023/11/27 07:11:56;;;;;;;5.80;3.20;;;;;;;-2.56;85.96;97026.44;81838;1273;3011896;-66
2023/11/27 07:14:26;;;;;;;4.20;2.40;;;;;;;-2.47;86.60;97010.38;80483;1275;3052581;-62
2023/11/27 07:16:54;;;;;;;7.10;2.60;;;;;;;-1.92;86.00;97001.73;81840;1274;3011822;-65
2023/11/27 07:19:25;;;;;;;6.70;2.10;;;;;;;-1.64;83.54;97028.52;81306;1274;3013424;-68
2023/11/27 07:21:51;;;;;;;4.60;2.70;;;;;;;-1.91;83.31;97015.77;81776;1270;3013989;-64
2023/11/27 07:24:18;;;;;;;5.20;2.90;;;;;;;-1.79;84.45;97029.91;81599;1273;3011441;-66
2023/11/27 07:26:46;;;;;;;7.90;3.50;;;;;;;-1.80;83.39;97059.51;80427;1274;3050584;-64
2023/11/27 07:29:13;;;;;;;7.70;3.60;;;;;;;-2.28;84.34;97072.27;81474;1274;3013478;-66
2023/11/27 07:31:40;;;;;;;7.10;3.50;;;;;;;-2.57;85.25;97062.10;81635;1274;3013026;-61
2023/11/27 07:34:11;;;;;;;4.30;2.00;;;;;;;-2.68;86.10;97057.46;80339;1271;3028491;-63
2023/11/27 07:36:38;;;;;;;10.10;4.00;;;;;;;-1.93;85.79;97053.64;81742;1270;3011371;-64
2023/11/27 07:39:07;;;;;;;9.00;3.50;;;;;;;-1.67;84.24;97075.70;81097;1276;3011909;-65
2023/11/27 07:41:35;;;;;;;4.80;2.60;;;;;;;-1.53;82.89;97091.48;81606;1271;3012973;-64
2023/11/27 07:44:02;;;;;;;6.80;2.90;;;;;;;-1.72;82.12;97111.30;82060;1275;3011243;-65
2023/11/27 07:46:31;;;;;;;8.90;3.00;;;;;;;-1.97;82.72;97102.69;80417;1275;3051909;-60
2023/11/27 07:48:58;;;;;;;6.50;2.90;;;;;;;-2.25;83.25;97103.15;81916;1274;3014951;-60
2023/11/27 07:51:24;;;;;;;7.20;2.90;;;;;;;-2.39;83.78;97145.96;81755;1273;3012904;-63
2023/11/27 07:53:53;;;;;;;8.20;3.10;;;;;;;-2.34;83.18;97121.39;80421;1283;3049020;-63
2023/11/27 07:56:30;;;;;;;6.40;2.60;;;;;;;-2.66;84.97;97117.35;81836;1270;3013723;-65
2023/11/27 07:58:58;;;;;;;5.70;3.10;;;;;;;-1.67;84.63;97124.81;80168;1275;3052454;-64
2023/11/27 08:01:25;;;;;;;7.40;4.10;;;;;;;-1.27;81.41;97118.17;81640;1274;3013375;-65
2023/11/27 08:03:52;;;;;;;7.20;3.30;;;;;;;-1.49;80.85;97130.42;81447;1275;3012943;-63
2023/11/27 08:06:20;;;;;;;5.70;2.90;;;;;;;-1.51;80.39;97146.67;80346;1274;3027133;-69
2023/11/27 08:08:47;;;;;;;6.70;3.10;;;;;;;-1.79;81.98;97132.91;81648;1270;3013734;-64
2023/11/27 08:11:15;;;;;;;9.30;3.90;;;;;;;-1.77;80.47;97148.59;81580;1274;3013460;-63
2023/11/27 08:13:43;;;;;;;5.00;2.70;;;;;;;-2.19;81.83;97146.30;80237;1277;3051782;-65
2023/11/27 08:16:10;;;;;;;6.00;2.40;;;;;;;-2.37;83.16;97163.39;81533;1275;3019038;-69
2023/11/27 08:18:38;;;;;;;5.30;2.60;;;;;;;-2.30;82.86;97154.17;81412;1276;3013607;-69
2023/11/27 08:21:07;;;;;;;7.90;2.40;;;;;;;-2.52;83.49;97169.20;80594;1276;3057162;-61
2023/11/27 08:23:34;;;;;;;4.60;2.80;;;;;;;-2.50;84.14;97190.36;81806;1270;3013797;-63
2023/11/27 08:26:05;;;;;;;4.30;2.20;;;;;;;-2.06;83.19;97184.63;81756;1274;3011392;-66
2023/11/27 08:28:33;;;;;;;4.10;2.60;;;;;;;-1.65;81.49;97165.56;80429;1275;3052200;-65
2023/11/27 08:31:00;;;;;;;4.40;2.30;;;;;;;-1.50;80.86;97175.65;82008;1276;3012982;-65
2023/11/27 08:33:27;;;;;;;4.30;2.40;;;;;;;-1.54;80.53;97185.45;81617;1273;3011723;-64
2023/11/27 08:35:57;;;;;;;7.00;3.40;;;;;;;-1.49;79.11;97206.30;80389;1269;3055255;-63
2023/11/27 08:38:25;;;;;;;8.20;4.10;;;;;;;-2.12;81.39;97217.48;81572;1282;3013295;-65
2023/11/27 08:40:53;;;;;;;10.20;4.70;;;;;;;-2.32;82.69;97200.91;80439;1274;3027806;-63
2023/11/27 08:43:22;;;;;;;2.80;1.70;;;;;;;-2.37;83.13;97224.95;81559;1282;3021115;-64
2023/11/27 08:45:49;;;;;;;9.40;3.30;;;;;;;-2.44;83.05;97210.67;81608;1275;3012736;-61
2023/11/27 08:48:17;;;;;;;6.90;3.00;;;;;;;-2.47;83.15;97217.69;80341;1275;3069461;-63
2023/11/27 08:50:44;;;;;;;7.90;4.30;;;;;;;-2.31;82.84;97225.04;81642;1270;3013245;-65
2023/11/27 08:53:11;;;;;;;5.30;2.70;;;;;;;-1.40;80.44;97237.10;81580;1273;3011637;-66
2023/11/27 08:55:39;;;;;;;6.50;2.80;;;;;;;-1.54;78.86;97242.66;80285;1273;3026380;-64
2023/11/27 08:58:06;;;;;;;6.40;3.40;;;;;;;-1.69;78.44;97237.67;81675;1274;3015446;-64
2023/11/27 09:00:34;;;;;;;6.20;3.30;;;;;;;-1.92;79.63;97258.77;81648;1276;3013135;-63
2023/11/27 09:03:02;;;;;;;5.10;2.30;;;;;;;-2.01;79.59;97263.14;80382;1276;3069157;-61
2023/11/27 09:05:33;;;;;;;3.40;2.30;;;;;;;-2.34;80.74;97286.19;81788;1270;3013365;-63
2023/11/27 09:11:01;;;;;;;8.60;4.00;;;;;;;-2.38;80.01;97287.23;80290;1302;3013530;-62
2023/11/27 09:13:29;;;;;;;6.20;3.40;;;;;;;-2.36;80.40;97302.59;79188;1301;3013605;-61
2023/11/27 09:15:56;;;;;;;4.50;3.10;;;;;;;-2.34;79.40;97283.98;79245;1301;3011650;-63
2023/11/27 09:18:24;;;;;;;5.80;3.20;;;;;;;-2.48;80.03;97292.30;77781;1304;3051024;-64
2023/11/27 09:20:51;;;;;;;6.50;3.40;;;;;;;-2.55;80.49;97298.42;79345;1306;3011718;-64
2023/11/27 09:23:18;;;;;;;6.60;3.80;;;;;;;-2.54;80.45;97317.75;76444;1302;3688056;-66
2023/11/27 09:25:46;;;;;;;8.20;3.70;;;;;;;-2.67;80.62;97324.44;78166;1298;3025920;-61
2023/11/27 09:28:13;;;;;;;5.50;3.00;;;;;;;-2.67;81.22;97315.56;79402;1298;3013539;-64
2023/11/27 09:30:40;;;;;;;7.20;4.20;;;;;;;-2.54;81.32;97315.88;79662;1298;3011588;-62
2023/11/27 09:33:08;;;;;;;8.70;4.10;;;;;;;-1.55;78.95;97325.44;78416;1298;3028120;-63
2023/11/27 09:35:35;;;;;;;4.40;3.10;;;;;;;-1.89;78.06;97331.92;79292;1301;3021320;-64
2023/11/27 09:38:03;;;;;;;8.90;3.40;;;;;;;-1.60;78.24;97331.66;79229;1301;3011740;-62
2023/11/27 09:40:40;;;;;;;6.30;3.40;;;;;;;-2.14;78.41;97321.70;77976;1301;3047656;-63
2023/11/27 09:43:12;;;;;;;8.50;4.00;;;;;;;-2.14;79.53;97332.52;78102;1299;3052063;-63
2023/11/27 09:45:39;;;;;;;16.10;5.30;;;;;;;-2.28;80.27;97322.98;79579;1298;3013591;-64
2023/11/27 09:48:10;;;;;;;13.80;5.00;;;;;;;-2.25;80.56;97331.25;78036;1301;3025839;-67
2023/11/27 09:50:37;;;;;;;9.80;3.40;;;;;;;-2.48;81.21;97334.63;79457;1301;3011751;-63
2023/11/27 09:53:07;;;;;;;17.20;5.50;;;;;;;-2.56;81.37;97336.50;78872;1299;3011688;-66
2023/11/27 09:55:35;;;;;;;10.40;4.10;;;;;;;-2.91;83.12;97337.27;79421;1297;3012950;-64
2023/11/27 09:58:05;;;;;;;12.00;5.10;;;;;;;-2.77;83.90;97348.17;78854;1299;3011560;-63
2023/11/27 10:00:32;;;;;;;11.20;4.60;;;;;;;-2.54;83.03;97341.23;79725;1295;3018535;-61
2023/11/27 10:02:59;;;;;;;6.50;2.90;;;;;;;-2.22;82.20;97356.01;79815;1297;3013150;-64
2023/11/27 10:05:27;;;;;;;8.90;4.30;;;;;;;-1.76;80.52;97351.75;78518;1298;3026303;-63
2023/11/27 10:07:56;;;;;;;9.80;4.30;;;;;;;-1.69;80.58;97352.17;79812;1294;3013274;-63
2023/11/27 10:10:26;;;;;;;6.70;3.00;;;;;;;-1.45;78.89;97380.42;79318;1294;3013066;-64
2023/11/27 10:13:06;;;;;;;15.10;6.40;;;;;;;-2.08;80.20;97375.14;78217;1298;3057324;-61
2023/11/27 10:15:35;;;;;;;6.60;2.90;;;;;;;-2.18;81.46;97375.06;78344;1294;3049954;-60
2023/11/27 10:21:15;;;;;;;10.90;4.90;;;;;;;-2.20;80.77;97396.08;79996;1304;3013621;-65
2023/11/27 10:23:44;;;;;;;10.50;4.80;;;;;;;-2.24;80.76;97390.56;77921;1301;3052350;-62
2023/11/27 10:26:11;;;;;;;7.60;4.30;;;;;;;-2.35;80.61;97399.59;79460;1301;3011925;-65
2023/11/27 10:28:48;;;;;;;10.50;4.40;;;;;;;-2.43;80.97;97411.42;79239;1301;3013058;-64
2023/11/27 10:31:16;;;;;;;8.60;3.40;;;;;;;-2.37;80.71;97415.47;78032;1298;3069324;-65
2023/11/27 10:33:43;;;;;;;4.20;2.70;;;;;;;-2.68;81.01;97429.39;76755;1299;3571336;-65
2023/11/27 10:36:11;;;;;;;8.50;3.40;;;;;;;-2.42;81.33;97425.27;79364;1295;3012015;-63
2023/11/27 10:38:39;;;;;;;10.10;4.80;;;;;;;-1.74;79.21;97435.27;78124;1298;3053608;-65
2023/11/27 10:41:07;;;;;;;7.40;4.10;;;;;;;-1.33;76.48;97427.46;79405;1300;3013057;-64
2023/11/27 10:43:35;;;;;;;8.30;4.20;;;;;;;-1.65;76.20;97441.59;79508;1301;3011602;-67
2023/11/27 10:46:07;;;;;;;7.50;4.10;;;;;;;-2.06;77.06;97454.12;78054;1301;3067991;-65
2023/11/27 10:48:34;;;;;;;5.60;3.20;;;;;;;-2.22;78.38;97450.86;79430;1296;3011615;-64
2023/11/27 10:51:05;;;;;;;7.10;4.40;;;;;;;-2.06;78.24;97451.41;78082;1300;3026415;-66
2023/11/27 10:53:33;;;;;;;10.40;4.60;;;;;;;-2.30;77.85;97456.14;79381;1295;3011636;-60
2023/11/27 10:56:01;;;;;;;9.80;4.30;;;;;;;-2.55;79.01;97480.15;78068;1300;3051272;-63
2023/11/27 10:58:28;;;;;;;10.00;4.90;;;;;;;-2.57;80.07;97455.50;79349;1298;3013585;-64
2023/11/27 11:00:57;;;;;;;7.60;3.70;;;;;;;-2.46;79.93;97449.77;79360;1300;3013701;-65
2023/11/27 11:03:26;;;;;;;5.40;3.20;;;;;;;-2.52;79.73;97484.29;78559;1301;3068624;-63
2023/11/27 11:05:56;;;;;;;6.40;3.90;;;;;;;-2.51;79.91;97478.10;79311;1298;3013200;-62
2023/11/27 11:08:26;;;;;;;6.50;3.50;;;;;;;-2.33;81.12;97464.67;78102;1295;3050304;-65
2023/11/27 11:10:57;;;;;;;5.90;3.20;;;;;;;-1.58;78.77;97473.90;79352;1296;3013631;-64
2023/11/27 11:13:25;;;;;;;4.70;2.80;;;;;;;-1.49;77.36;97503.74;78420;1301;3050005;-64
2023/11/27 11:16:00;;;;;;;6.70;3.20;;;;;;;-1.61;77.65;97483.14;79638;1295;3013273;-65
2023/11/27 11:18:53;;;;;;;7.50;3.40;;;;;;;-1.52;77.08;97496.30;78373;1300;3069206;-64
2023/11/27 11:21:43;;;;;;;8.20;3.90;;;;;;;-1.72;77.18;97504.73;78286;1300;3051034;-64
2023/11/27 11:24:34;;;;;;;4.80;2.80;;;;;;;-2.14;78.40;97509.20;78239;1300;3058703;-67
2023/11/27 11:27:17;;;;;;;8.60;4.20;;;;;;;-2.25;78.95;97534.00;78386;1296;3048671;-64
2023/11/27 11:29:45;;;;;;;8.90;3.60;;;;;;;-2.46;79.66;97520.08;78441;1295;3052580;-63